Taconic, Connecticut
Current Conditions -  °F | °C
As of 10:54 PM on Tuesday 25 Nov 2014 (Local Time) from KPSF Reporting Station
Clear Clear  
Wind Chill: 33°   Ceiling: Unl
Heat Index: 38°   Visibility: 10mi
Dew Point: 26°   Wind: 6mph
Humidity: 62%   Direction: 310°NW
Pressure: 30.1"   Gusts: NA
Location:  42.04°N, 73.41°W
Report Text: KPSF 260354Z AUTO 31005KT 10SM CLR 03/M03 A3010 RMK AO2 SLP190 T00331033
Loading
Personal Weather Stations






























Interactive Weather Map New forecast layout! Learn more

10-Day Weather Forecast

Advertisements
Track Severe Weather on mobile